createdAt,value
2024-03-24T00:00:27.750Z,5
2024-03-24T00:01:28.589Z,6
2024-03-24T00:02:27.791Z,6
2024-03-24T00:03:28.157Z,6
2024-03-24T00:04:27.776Z,5
2024-03-24T00:05:28.183Z,5
2024-03-24T00:06:28.100Z,6
2024-03-24T00:07:27.766Z,4
2024-03-24T00:08:28.565Z,4
2024-03-24T00:09:28.389Z,8
2024-03-24T00:10:28.390Z,5
2024-03-24T00:11:28.313Z,4
2024-03-24T00:12:28.128Z,5
2024-03-24T00:13:27.820Z,6
2024-03-24T00:14:28.022Z,4
2024-03-24T00:15:27.783Z,4
2024-03-24T00:16:27.766Z,5
2024-03-24T00:17:27.836Z,8
2024-03-24T00:18:28.215Z,6
2024-03-24T00:19:27.916Z,5
2024-03-24T00:20:27.807Z,6
2024-03-24T00:21:27.787Z,6
2024-03-24T00:22:28.548Z,6
2024-03-24T00:23:27.787Z,8
2024-03-24T00:24:27.756Z,5
2024-03-24T00:25:27.779Z,4
2024-03-24T00:26:28.186Z,6
2024-03-24T00:27:27.800Z,6
2024-03-24T00:28:27.836Z,7
2024-03-24T00:29:27.794Z,10
2024-03-24T00:30:27.826Z,3
2024-03-24T00:31:28.725Z,4
2024-03-24T00:32:28.638Z,7
2024-03-24T00:33:28.316Z,6
2024-03-24T00:34:27.778Z,6
2024-03-24T00:35:28.109Z,5
2024-03-24T00:36:27.414Z,6
2024-03-24T00:37:27.826Z,6
2024-03-24T00:38:28.211Z,5
2024-03-24T00:39:28.147Z,7
2024-03-24T00:40:27.777Z,8
2024-03-24T00:41:27.753Z,7
2024-03-24T00:42:27.743Z,5
2024-03-24T00:43:27.746Z,7
2024-03-24T00:44:27.784Z,6
2024-03-24T00:45:28.304Z,4
2024-03-24T00:46:28.075Z,7
2024-03-24T00:47:28.017Z,4
2024-03-24T00:48:27.919Z,5
2024-03-24T00:49:28.522Z,4
2024-03-24T00:50:28.034Z,4
2024-03-24T00:51:27.759Z,7
2024-03-24T00:52:28.413Z,6
2024-03-24T00:53:27.778Z,4
2024-03-24T00:54:28.064Z,5
2024-03-24T00:55:28.486Z,8
2024-03-24T00:56:28.470Z,5
2024-03-24T00:57:28.184Z,4
2024-03-24T00:58:27.805Z,5
2024-03-24T00:59:28.165Z,4
2024-03-24T01:00:27.969Z,4
2024-03-24T01:01:27.757Z,5
2024-03-24T01:02:27.770Z,7
2024-03-24T01:03:28.479Z,7
2024-03-24T01:04:27.779Z,3
2024-03-24T01:05:27.751Z,5
2024-03-24T01:06:27.748Z,5
2024-03-24T01:07:27.929Z,7
2024-03-24T01:08:28.527Z,4
2024-03-24T01:09:28.273Z,4
2024-03-24T01:10:28.138Z,5
2024-03-24T01:11:27.810Z,5
2024-03-24T01:12:28.209Z,4
2024-03-24T01:13:28.076Z,3
2024-03-24T01:14:28.070Z,7
2024-03-24T01:15:28.309Z,6
2024-03-24T01:16:27.770Z,5
2024-03-24T01:17:27.817Z,4
2024-03-24T01:18:27.747Z,6
2024-03-24T01:19:30.792Z,6
2024-03-24T01:20:27.887Z,5
2024-03-24T01:21:28.318Z,7
2024-03-24T01:22:28.165Z,3
2024-03-24T01:23:27.999Z,5
2024-03-24T01:24:28.400Z,4
2024-03-24T01:25:28.318Z,5
2024-03-24T01:26:27.772Z,6
2024-03-24T01:27:27.831Z,4
2024-03-24T01:28:27.800Z,6
2024-03-24T01:29:28.577Z,5
2024-03-24T01:30:28.403Z,6
2024-03-24T01:31:27.760Z,4
2024-03-24T01:32:27.750Z,7
2024-03-24T01:33:28.334Z,6
2024-03-24T01:34:28.337Z,5
2024-03-24T01:35:27.760Z,3
2024-03-24T01:36:28.348Z,5
2024-03-24T01:37:27.934Z,4
2024-03-24T01:38:27.787Z,3
2024-03-24T01:39:28.041Z,6
2024-03-24T01:40:28.185Z,4
2024-03-24T01:41:28.427Z,5
2024-03-24T01:42:27.723Z,5
2024-03-24T01:43:27.107Z,4
2024-03-24T01:44:28.374Z,4
2024-03-24T01:45:28.585Z,4
2024-03-24T01:46:27.818Z,5
2024-03-24T01:47:28.329Z,4
2024-03-24T01:48:27.765Z,3
2024-03-24T01:49:27.750Z,4
2024-03-24T01:50:28.094Z,3
2024-03-24T01:51:27.737Z,3
2024-03-24T01:52:28.314Z,6
2024-03-24T01:53:28.291Z,5
2024-03-24T01:54:27.865Z,3
2024-03-24T01:55:27.795Z,4
2024-03-24T01:56:28.145Z,4
2024-03-24T01:57:28.454Z,4
2024-03-24T01:58:27.750Z,4
2024-03-24T01:59:28.351Z,6
2024-03-24T02:00:28.189Z,5
2024-03-24T02:01:27.832Z,6
2024-03-24T02:02:28.376Z,4
2024-03-24T02:03:28.028Z,5
2024-03-24T02:04:27.806Z,5
2024-03-24T02:05:27.963Z,4
2024-03-24T02:06:30.499Z,3
2024-03-24T02:07:28.742Z,4
2024-03-24T02:08:27.783Z,4
2024-03-24T02:09:28.556Z,6
2024-03-24T02:10:27.764Z,4
2024-03-24T02:11:27.991Z,5
2024-03-24T02:12:28.004Z,5
2024-03-24T02:13:27.746Z,4
2024-03-24T02:14:28.719Z,3
2024-03-24T02:15:28.288Z,4
2024-03-24T02:16:28.314Z,4
2024-03-24T02:17:28.288Z,5
2024-03-24T02:18:28.415Z,4
2024-03-24T02:19:27.755Z,4
2024-03-24T02:20:27.794Z,5
2024-03-24T02:21:27.763Z,5
2024-03-24T02:22:27.899Z,6
2024-03-24T02:23:27.773Z,4
2024-03-24T02:24:27.781Z,4
2024-03-24T02:25:28.224Z,3
2024-03-24T02:26:28.522Z,6
2024-03-24T02:27:28.457Z,4
2024-03-24T02:28:28.217Z,3
2024-03-24T02:29:28.649Z,6
2024-03-24T02:30:27.754Z,4
2024-03-24T02:31:27.781Z,5
2024-03-24T02:32:27.818Z,3
2024-03-24T02:33:28.368Z,3
2024-03-24T02:34:27.755Z,4
2024-03-24T02:35:27.737Z,7
2024-03-24T02:36:28.580Z,7
2024-03-24T02:37:28.578Z,6
2024-03-24T02:38:27.800Z,3
2024-03-24T02:39:28.319Z,3
2024-03-24T02:40:27.870Z,4
2024-03-24T02:41:27.783Z,4
2024-03-24T02:42:28.171Z,6
2024-03-24T02:43:27.735Z,3
2024-03-24T02:44:27.751Z,5
2024-03-24T02:45:28.059Z,4
2024-03-24T02:46:27.821Z,4
2024-03-24T02:47:28.254Z,4
2024-03-24T02:48:28.047Z,4
2024-03-24T02:49:28.717Z,4
2024-03-24T02:50:26.602Z,6
2024-03-24T02:51:27.736Z,4
2024-03-24T02:52:27.861Z,4
2024-03-24T02:53:28.389Z,4
2024-03-24T02:54:27.899Z,4
2024-03-24T02:55:27.908Z,5
2024-03-24T02:56:28.545Z,3
2024-03-24T02:57:28.158Z,3
2024-03-24T02:58:28.501Z,3
2024-03-24T02:59:27.774Z,2
2024-03-24T03:00:28.054Z,3
2024-03-24T03:01:27.795Z,6
2024-03-24T03:02:28.526Z,6
2024-03-24T03:03:28.548Z,5
2024-03-24T03:04:28.208Z,5
2024-03-24T03:05:27.748Z,4
2024-03-24T03:06:27.856Z,5
2024-03-24T03:07:27.784Z,4
2024-03-24T03:08:28.049Z,5
2024-03-24T03:09:27.784Z,3
2024-03-24T03:10:28.130Z,5
2024-03-24T03:11:27.742Z,6
2024-03-24T03:12:27.793Z,5
2024-03-24T03:13:28.416Z,4
2024-03-24T03:14:28.111Z,3
2024-03-24T03:15:27.991Z,5
2024-03-24T03:16:28.615Z,4
2024-03-24T03:17:28.520Z,5
2024-03-24T03:18:27.830Z,4
2024-03-24T03:19:28.318Z,4
2024-03-24T03:20:27.855Z,4
2024-03-24T03:21:28.291Z,5
2024-03-24T03:22:27.763Z,6
2024-03-24T03:23:27.972Z,4
2024-03-24T03:24:28.299Z,3
2024-03-24T03:25:27.808Z,7
2024-03-24T03:26:27.845Z,5
2024-03-24T03:27:28.494Z,5
2024-03-24T03:28:27.848Z,4
2024-03-24T03:29:27.817Z,5
2024-03-24T03:30:27.799Z,5
2024-03-24T03:31:27.930Z,5
2024-03-24T03:32:27.806Z,5
2024-03-24T03:33:27.838Z,4
2024-03-24T03:34:28.457Z,4
2024-03-24T03:35:27.758Z,6
2024-03-24T03:36:27.788Z,7
2024-03-24T03:37:27.814Z,4
2024-03-24T03:38:27.768Z,4
2024-03-24T03:39:28.033Z,4
2024-03-24T03:40:27.888Z,4
2024-03-24T03:41:28.405Z,4
2024-03-24T03:42:27.783Z,7
2024-03-24T03:43:27.767Z,3
2024-03-24T03:44:27.763Z,4
2024-03-24T03:45:27.741Z,6
2024-03-24T03:46:28.434Z,4
2024-03-24T03:47:28.221Z,5
2024-03-24T03:48:27.738Z,6
2024-03-24T03:49:28.306Z,3
2024-03-24T03:50:27.765Z,6
2024-03-24T03:51:27.785Z,4
2024-03-24T03:52:27.837Z,5
2024-03-24T03:53:27.729Z,5
2024-03-24T03:54:28.718Z,4
2024-03-24T03:55:28.611Z,5
2024-03-24T03:56:28.176Z,4
2024-03-24T03:58:28.704Z,6
2024-03-24T03:59:27.796Z,4
2024-03-24T04:00:27.783Z,4
2024-03-24T04:01:28.047Z,4
2024-03-24T04:02:28.052Z,5
2024-03-24T04:03:27.795Z,7
2024-03-24T04:04:28.432Z,4
2024-03-24T04:05:27.772Z,6
2024-03-24T04:06:27.737Z,5
2024-03-24T04:07:28.242Z,7
2024-03-24T04:08:27.756Z,5
2024-03-24T04:09:27.756Z,6
2024-03-24T04:10:27.744Z,5
2024-03-24T04:11:28.296Z,8
2024-03-24T04:12:27.869Z,7
2024-03-24T04:13:27.723Z,7
2024-03-24T04:14:28.501Z,6
2024-03-24T04:15:28.555Z,5
2024-03-24T04:16:28.100Z,5
2024-03-24T04:17:27.960Z,8
2024-03-24T04:18:27.749Z,8
2024-03-24T04:19:28.168Z,6
2024-03-24T04:20:27.815Z,7
2024-03-24T04:21:28.277Z,8
2024-03-24T04:22:28.027Z,8
2024-03-24T04:23:28.421Z,8
2024-03-24T04:24:28.323Z,6
2024-03-24T04:25:28.568Z,8
2024-03-24T04:26:28.342Z,8
2024-03-24T04:27:28.235Z,7
2024-03-24T04:28:28.278Z,9
2024-03-24T04:29:28.168Z,7
2024-03-24T04:30:28.615Z,7
2024-03-24T04:31:27.753Z,9
2024-03-24T04:32:28.043Z,8
2024-03-24T04:33:27.741Z,8
2024-03-24T04:34:28.507Z,8
2024-03-24T04:35:28.291Z,9
2024-03-24T04:36:28.399Z,7
2024-03-24T04:37:27.795Z,9
2024-03-24T04:38:27.776Z,7
2024-03-24T04:39:27.803Z,9
2024-03-24T04:40:28.630Z,8
2024-03-24T04:41:27.735Z,8
2024-03-24T04:42:27.746Z,7
2024-03-24T04:43:27.927Z,10
2024-03-24T04:44:27.720Z,7
2024-03-24T04:45:27.726Z,8
2024-03-24T04:46:27.775Z,8
2024-03-24T04:47:27.810Z,8
2024-03-24T04:48:28.141Z,7
2024-03-24T04:49:27.730Z,8
2024-03-24T04:50:28.336Z,10
2024-03-24T04:51:27.883Z,10
2024-03-24T04:52:27.888Z,11
2024-03-24T04:53:27.735Z,10
2024-03-24T04:54:27.746Z,10
2024-03-24T04:55:27.803Z,10
2024-03-24T04:56:27.985Z,8
2024-03-24T04:57:28.491Z,9
2024-03-24T04:58:28.181Z,8
2024-03-24T04:59:28.141Z,9
2024-03-24T05:00:27.740Z,8
2024-03-24T05:01:28.434Z,9
2024-03-24T05:02:28.239Z,9
2024-03-24T05:03:28.139Z,8
2024-03-24T05:04:26.783Z,13
2024-03-24T05:05:28.634Z,8
2024-03-24T05:06:28.586Z,6
2024-03-24T05:07:28.076Z,7
2024-03-24T05:08:27.739Z,7
2024-03-24T05:09:27.757Z,7
2024-03-24T05:10:27.755Z,10
2024-03-24T05:11:28.305Z,10
2024-03-24T05:12:28.258Z,8
2024-03-24T05:13:28.265Z,6
2024-03-24T05:14:27.749Z,7
2024-03-24T05:15:27.753Z,9
2024-03-24T05:16:27.768Z,9
2024-03-24T05:17:27.773Z,9
2024-03-24T05:18:28.237Z,8
2024-03-24T05:19:27.746Z,6
2024-03-24T05:20:30.280Z,8
2024-03-24T05:21:27.751Z,9
2024-03-24T05:22:27.974Z,8
2024-03-24T05:23:27.710Z,10
2024-03-24T05:24:28.427Z,7
2024-03-24T05:25:28.570Z,9
2024-03-24T05:26:27.714Z,8
2024-03-24T05:27:28.295Z,5
2024-03-24T05:28:30.476Z,7
2024-03-24T05:29:27.774Z,9
2024-03-24T05:30:27.995Z,11
2024-03-24T05:31:27.709Z,9
2024-03-24T05:32:28.324Z,8
2024-03-24T05:33:28.284Z,7
2024-03-24T05:34:27.739Z,5
2024-03-24T05:35:28.592Z,6
2024-03-24T05:36:27.735Z,6
2024-03-24T05:37:27.721Z,6
2024-03-24T05:38:27.808Z,7
2024-03-24T05:39:28.913Z,5
2024-03-24T05:40:28.419Z,7
2024-03-24T05:41:27.888Z,6
2024-03-24T05:42:28.227Z,8
2024-03-24T05:43:28.447Z,8
2024-03-24T05:44:28.051Z,8
2024-03-24T05:45:28.002Z,7
2024-03-24T05:46:28.086Z,8
2024-03-24T05:47:28.427Z,5
2024-03-24T05:48:28.414Z,5
2024-03-24T05:49:28.500Z,5
2024-03-24T05:50:28.392Z,5
2024-03-24T05:51:28.299Z,6
2024-03-24T05:52:28.251Z,6
2024-03-24T05:53:28.283Z,5
2024-03-24T05:54:28.468Z,9
2024-03-24T05:55:28.594Z,6
2024-03-24T05:56:28.740Z,7
2024-03-24T05:57:27.778Z,6
2024-03-24T05:58:27.731Z,7
2024-03-24T05:59:27.711Z,7
2024-03-24T06:00:28.746Z,6
2024-03-24T06:01:27.850Z,7
2024-03-24T06:02:28.371Z,7
2024-03-24T06:03:27.709Z,7
2024-03-24T06:04:29.157Z,8
2024-03-24T06:05:27.707Z,7
2024-03-24T06:06:28.285Z,8
2024-03-24T06:07:28.072Z,12
2024-03-24T06:08:27.729Z,6
2024-03-24T06:09:28.030Z,7
2024-03-24T06:10:28.298Z,7
2024-03-24T06:11:27.075Z,8
2024-03-24T06:12:27.781Z,8
2024-03-24T06:13:28.381Z,8
2024-03-24T06:14:27.711Z,7
2024-03-24T06:15:27.790Z,9
2024-03-24T06:16:27.750Z,7
2024-03-24T06:17:28.239Z,6
2024-03-24T06:18:27.724Z,6
2024-03-24T06:19:28.241Z,7
2024-03-24T06:20:27.747Z,6
2024-03-24T06:21:27.770Z,6
2024-03-24T06:22:27.716Z,6
2024-03-24T06:23:28.214Z,6
2024-03-24T06:24:28.141Z,7
2024-03-24T06:25:28.501Z,10
2024-03-24T06:26:28.226Z,7
2024-03-24T06:27:27.793Z,7
2024-03-24T06:28:27.726Z,7
2024-03-24T06:29:28.523Z,9
2024-03-24T06:30:27.763Z,9
2024-03-24T06:31:28.283Z,10
2024-03-24T06:32:28.369Z,8
2024-03-24T06:33:27.722Z,8
2024-03-24T06:34:28.676Z,13
2024-03-24T06:35:28.011Z,8
2024-03-24T06:36:27.707Z,7
2024-03-24T06:37:28.331Z,7
2024-03-24T06:38:28.369Z,9
2024-03-24T06:39:27.786Z,6
2024-03-24T06:40:28.404Z,7
2024-03-24T06:41:27.969Z,6
2024-03-24T06:42:27.719Z,7
2024-03-24T06:43:28.351Z,8
2024-03-24T06:44:27.728Z,10
2024-03-24T06:45:28.189Z,8
2024-03-24T06:46:28.313Z,7
2024-03-24T06:47:28.714Z,8
2024-03-24T06:48:28.469Z,10
2024-03-24T06:49:28.242Z,9
2024-03-24T06:50:27.696Z,10
2024-03-24T06:51:28.057Z,7
2024-03-24T06:52:30.065Z,7
2024-03-24T06:53:27.748Z,8
2024-03-24T06:54:28.452Z,7
2024-03-24T06:55:28.280Z,8
2024-03-24T06:56:28.380Z,10
2024-03-24T06:57:27.855Z,9
2024-03-24T06:58:27.735Z,9
2024-03-24T06:59:28.073Z,9
2024-03-24T07:00:27.884Z,10
2024-03-24T07:01:27.692Z,9
2024-03-24T07:02:27.930Z,7
2024-03-24T07:03:28.240Z,7
2024-03-24T07:04:28.170Z,9
2024-03-24T07:05:28.726Z,11
2024-03-24T07:06:27.697Z,10
2024-03-24T07:07:27.748Z,9
2024-03-24T07:08:27.905Z,8
2024-03-24T07:09:28.391Z,8
2024-03-24T07:10:28.238Z,11
2024-03-24T07:11:27.715Z,30
2024-03-24T07:12:27.880Z,15
2024-03-24T07:13:28.396Z,21
2024-03-24T07:14:27.910Z,16
2024-03-24T07:15:27.696Z,19
2024-03-24T07:16:28.211Z,19
2024-03-24T07:17:28.714Z,15
2024-03-24T07:18:26.530Z,9
2024-03-24T07:19:27.711Z,15
2024-03-24T07:20:27.744Z,12
2024-03-24T07:21:28.566Z,9
2024-03-24T07:22:27.742Z,9
2024-03-24T07:23:27.710Z,11
2024-03-24T07:24:28.099Z,8
2024-03-24T07:25:28.379Z,9
2024-03-24T07:26:27.712Z,9
2024-03-24T07:27:27.767Z,14
2024-03-24T07:28:27.696Z,13
2024-03-24T07:29:27.762Z,13
2024-03-24T07:30:28.364Z,13
2024-03-24T07:31:27.703Z,13
2024-03-24T07:32:27.780Z,12
2024-03-24T07:33:30.634Z,14
2024-03-24T07:34:27.766Z,10
2024-03-24T07:35:27.715Z,11
2024-03-24T07:36:27.719Z,14
2024-03-24T07:37:28.306Z,12
2024-03-24T07:38:27.786Z,16
2024-03-24T07:39:27.775Z,14
2024-03-24T07:40:27.731Z,13
2024-03-24T07:41:27.755Z,12
2024-03-24T07:42:28.358Z,17
2024-03-24T07:43:28.648Z,23
2024-03-24T07:44:27.800Z,13
2024-03-24T07:45:27.705Z,11
2024-03-24T07:46:27.711Z,15
2024-03-24T07:47:28.269Z,13
2024-03-24T07:48:27.758Z,13
2024-03-24T07:49:28.255Z,13
2024-03-24T07:50:28.583Z,11
2024-03-24T07:51:28.364Z,15
2024-03-24T07:52:27.792Z,16
2024-03-24T07:53:27.778Z,11
2024-03-24T07:54:27.728Z,16
2024-03-24T07:55:27.927Z,13
2024-03-24T07:56:27.740Z,11
2024-03-24T07:57:27.695Z,13
2024-03-24T07:58:28.321Z,10
2024-03-24T07:59:27.701Z,10
2024-03-24T08:00:27.997Z,11
2024-03-24T08:01:27.688Z,9
2024-03-24T08:02:28.050Z,10
2024-03-24T08:03:27.830Z,10
2024-03-24T08:04:27.852Z,9
2024-03-24T08:05:30.344Z,9
2024-03-24T08:06:27.687Z,9
2024-03-24T08:07:27.718Z,11
2024-03-24T08:08:27.775Z,10
2024-03-24T08:09:27.718Z,10
2024-03-24T08:10:28.218Z,11
2024-03-24T08:11:28.044Z,11
2024-03-24T08:12:27.791Z,9
2024-03-24T08:13:29.060Z,9
2024-03-24T08:14:28.292Z,7
2024-03-24T08:15:27.785Z,10
2024-03-24T08:16:28.265Z,6
2024-03-24T08:17:28.305Z,7
2024-03-24T08:18:27.689Z,7
2024-03-24T08:19:27.702Z,6
2024-03-24T08:20:28.411Z,7
2024-03-24T08:21:27.804Z,6
2024-03-24T08:22:28.143Z,6
2024-03-24T08:23:27.737Z,8
2024-03-24T08:24:27.754Z,9
2024-03-24T08:25:27.080Z,7
2024-03-24T08:26:28.346Z,8
2024-03-24T08:27:27.744Z,6
2024-03-24T08:28:27.769Z,7
2024-03-24T08:29:27.699Z,8
2024-03-24T08:30:28.403Z,7
2024-03-24T08:31:27.735Z,7
2024-03-24T08:32:28.486Z,9
2024-03-24T08:33:27.696Z,7
2024-03-24T08:34:27.742Z,7
2024-03-24T08:35:28.569Z,8
2024-03-24T08:36:28.428Z,7
2024-03-24T08:37:28.262Z,7
2024-03-24T08:38:28.264Z,7
2024-03-24T08:39:27.906Z,9
2024-03-24T08:40:31.129Z,8
2024-03-24T08:41:27.697Z,6
2024-03-24T08:42:27.982Z,7
2024-03-24T08:43:27.693Z,5
2024-03-24T08:44:28.321Z,6
2024-03-24T08:45:27.843Z,7
2024-03-24T08:46:28.107Z,8
2024-03-24T08:47:27.992Z,7
2024-03-24T08:48:34.384Z,7
2024-03-24T08:49:27.712Z,7
2024-03-24T08:50:27.680Z,8
2024-03-24T08:51:28.097Z,8
2024-03-24T08:52:28.424Z,9
2024-03-24T08:53:28.319Z,7
2024-03-24T08:54:28.112Z,10
2024-03-24T08:55:28.564Z,11
2024-03-24T08:56:28.036Z,11
2024-03-24T08:57:28.063Z,8
2024-03-24T08:58:27.770Z,13
2024-03-24T08:59:27.723Z,11
2024-03-24T09:00:28.608Z,13
2024-03-24T09:01:28.095Z,10
2024-03-24T09:02:29.035Z,11
2024-03-24T09:03:28.304Z,13
2024-03-24T09:04:28.011Z,12
2024-03-24T09:05:27.693Z,11
2024-03-24T09:06:28.263Z,13
2024-03-24T09:07:28.410Z,10
2024-03-24T09:08:27.710Z,10
2024-03-24T09:09:28.058Z,11
2024-03-24T09:10:27.766Z,9
2024-03-24T09:11:28.329Z,10
2024-03-24T09:12:28.053Z,11
2024-03-24T09:13:27.734Z,11
2024-03-24T09:14:27.926Z,10
2024-03-24T09:15:27.700Z,11
2024-03-24T09:16:28.326Z,8
2024-03-24T09:17:28.459Z,11
2024-03-24T09:18:28.469Z,9
2024-03-24T09:19:28.663Z,9
2024-03-24T09:20:27.714Z,8
2024-03-24T09:21:28.386Z,8
2024-03-24T09:22:28.540Z,8
2024-03-24T09:23:28.145Z,7
2024-03-24T09:24:28.324Z,10
2024-03-24T09:25:28.353Z,7
2024-03-24T09:26:27.702Z,8
2024-03-24T09:27:27.726Z,5
2024-03-24T09:28:27.715Z,8
2024-03-24T09:29:28.199Z,6
2024-03-24T09:30:28.091Z,7
2024-03-24T09:31:28.726Z,6
2024-03-24T09:32:27.397Z,6
2024-03-24T09:33:28.443Z,8
2024-03-24T09:34:28.349Z,7
2024-03-24T09:35:28.558Z,8
2024-03-24T09:36:28.222Z,7
2024-03-24T09:37:27.765Z,9
2024-03-24T09:38:29.983Z,10
2024-03-24T09:39:28.444Z,8
2024-03-24T09:40:28.567Z,7
2024-03-24T09:41:27.704Z,7
2024-03-24T09:42:27.714Z,10
2024-03-24T09:43:28.390Z,7
2024-03-24T09:44:27.684Z,9
2024-03-24T09:45:28.346Z,8
2024-03-24T09:46:27.679Z,8
2024-03-24T09:47:27.873Z,8
2024-03-24T09:48:28.240Z,11
2024-03-24T09:49:28.093Z,7
2024-03-24T09:50:28.211Z,7
2024-03-24T09:51:28.335Z,7
2024-03-24T09:52:27.727Z,8
2024-03-24T09:53:28.756Z,7
2024-03-24T09:54:27.725Z,8
2024-03-24T09:55:27.837Z,8
2024-03-24T09:56:28.135Z,7
2024-03-24T09:57:27.689Z,7
2024-03-24T09:58:28.395Z,6
2024-03-24T09:59:27.756Z,10
2024-03-24T10:00:28.600Z,6
2024-03-24T10:01:27.738Z,5
2024-03-24T10:02:27.896Z,6
2024-03-24T10:03:29.724Z,9
2024-03-24T10:04:27.766Z,9
2024-03-24T10:05:27.740Z,5
2024-03-24T10:06:27.696Z,5
2024-03-24T10:07:28.300Z,5
2024-03-24T10:08:27.734Z,5
2024-03-24T10:09:27.717Z,7
2024-03-24T10:10:27.788Z,6
2024-03-24T10:11:27.698Z,5
2024-03-24T10:12:27.892Z,7
2024-03-24T10:13:28.649Z,5
2024-03-24T10:14:28.106Z,4
2024-03-24T10:15:28.173Z,6
2024-03-24T10:16:27.746Z,6
2024-03-24T10:17:27.829Z,8
2024-03-24T10:18:27.682Z,7
2024-03-24T10:19:28.328Z,7
2024-03-24T10:20:28.491Z,7
2024-03-24T10:21:27.747Z,8
2024-03-24T10:22:27.721Z,8
2024-03-24T10:23:27.727Z,9
2024-03-24T10:24:28.459Z,8
2024-03-24T10:25:27.963Z,8
2024-03-24T10:26:27.717Z,9
2024-03-24T10:27:27.730Z,8
2024-03-24T10:28:28.578Z,9
2024-03-24T10:29:28.126Z,11
2024-03-24T10:30:28.247Z,9
2024-03-24T10:31:28.244Z,11
2024-03-24T10:32:28.439Z,11
2024-03-24T10:33:28.310Z,10
2024-03-24T10:34:27.725Z,10
2024-03-24T10:35:27.698Z,10
2024-03-24T10:36:28.270Z,9
2024-03-24T10:37:28.043Z,9
2024-03-24T10:38:27.773Z,9
2024-03-24T10:39:27.456Z,10
2024-03-24T10:40:27.953Z,13
2024-03-24T10:41:27.728Z,10
2024-03-24T10:42:27.696Z,8
2024-03-24T10:43:27.728Z,10
2024-03-24T10:44:28.132Z,12
2024-03-24T10:45:27.691Z,10
2024-03-24T10:46:27.798Z,10
2024-03-24T10:47:28.612Z,14
2024-03-24T10:48:27.774Z,11
2024-03-24T10:49:28.540Z,10
2024-03-24T10:50:27.691Z,8
2024-03-24T10:51:28.039Z,9
2024-03-24T10:52:27.722Z,8
2024-03-24T10:53:28.391Z,7
2024-03-24T10:54:28.146Z,11
2024-03-24T10:55:28.376Z,9
2024-03-24T10:56:27.709Z,11
2024-03-24T10:57:27.752Z,8
2024-03-24T10:58:28.404Z,13
2024-03-24T10:59:27.783Z,12
2024-03-24T11:00:28.374Z,11
2024-03-24T11:01:27.862Z,18
2024-03-24T11:02:27.705Z,10
2024-03-24T11:03:28.454Z,12
2024-03-24T11:04:27.991Z,10
2024-03-24T11:05:28.215Z,12
2024-03-24T11:06:27.992Z,10
2024-03-24T11:07:28.177Z,10
2024-03-24T11:08:27.700Z,11
2024-03-24T11:09:27.743Z,8
2024-03-24T11:10:28.173Z,9
2024-03-24T11:11:28.407Z,8
2024-03-24T11:12:28.439Z,9
2024-03-24T11:13:27.755Z,7
2024-03-24T11:14:28.332Z,8
2024-03-24T11:15:28.059Z,8
2024-03-24T11:16:28.307Z,11
2024-03-24T11:17:27.728Z,8
2024-03-24T11:18:27.690Z,6
2024-03-24T11:19:27.719Z,8
2024-03-24T11:20:27.709Z,11
2024-03-24T11:21:28.478Z,10
2024-03-24T11:22:28.061Z,10
2024-03-24T11:23:27.738Z,8
2024-03-24T11:24:27.784Z,11
2024-03-24T11:25:27.755Z,13
2024-03-24T11:26:28.315Z,12
2024-03-24T11:27:27.699Z,10
2024-03-24T11:28:28.220Z,9
2024-03-24T11:29:27.700Z,12
2024-03-24T11:30:27.751Z,7
2024-03-24T11:31:28.341Z,12
2024-03-24T11:32:28.182Z,9
2024-03-24T11:33:27.722Z,15
2024-03-24T11:34:28.007Z,10
2024-03-24T11:35:28.560Z,11
2024-03-24T11:36:27.792Z,12
2024-03-24T11:37:28.524Z,9
2024-03-24T11:38:28.582Z,12
2024-03-24T11:39:27.708Z,15
2024-03-24T11:40:28.360Z,12
2024-03-24T11:41:28.438Z,12
2024-03-24T11:42:28.287Z,12
2024-03-24T11:43:27.694Z,8
2024-03-24T11:44:28.306Z,9
2024-03-24T11:45:28.230Z,9
2024-03-24T11:46:27.347Z,5
2024-03-24T11:47:27.816Z,10
2024-03-24T11:48:28.027Z,9
2024-03-24T11:49:27.701Z,8
2024-03-24T11:50:28.442Z,10
2024-03-24T11:51:27.796Z,8
2024-03-24T11:52:27.696Z,11
2024-03-24T11:53:27.678Z,14
2024-03-24T11:54:27.715Z,12
2024-03-24T11:55:27.806Z,9
2024-03-24T11:56:28.137Z,11
2024-03-24T11:57:28.347Z,11
2024-03-24T11:58:27.944Z,12
2024-03-24T11:59:28.002Z,8
2024-03-24T12:00:28.087Z,9
2024-03-24T12:01:27.709Z,8
2024-03-24T12:02:28.375Z,10
2024-03-24T12:03:27.783Z,7
2024-03-24T12:04:27.796Z,11
2024-03-24T12:05:27.751Z,8
2024-03-24T12:06:27.639Z,13
2024-03-24T12:07:28.341Z,9
2024-03-24T12:08:28.391Z,10
2024-03-24T12:09:28.528Z,12
2024-03-24T12:10:28.188Z,10
2024-03-24T12:11:28.541Z,7
2024-03-24T12:12:27.957Z,11
2024-03-24T12:13:28.375Z,11
2024-03-24T12:14:28.533Z,10
2024-03-24T12:15:28.303Z,8
2024-03-24T12:16:27.693Z,7
2024-03-24T12:17:28.158Z,9
2024-03-24T12:18:27.823Z,6
2024-03-24T12:19:27.756Z,9
2024-03-24T12:20:27.678Z,11
2024-03-24T12:21:27.766Z,10
2024-03-24T12:22:27.769Z,8
2024-03-24T12:23:27.816Z,10
2024-03-24T12:24:27.813Z,8
2024-03-24T12:25:28.439Z,11
2024-03-24T12:26:28.236Z,9
2024-03-24T12:27:28.387Z,7
2024-03-24T12:28:27.693Z,9
2024-03-24T12:29:27.725Z,9
2024-03-24T12:30:28.644Z,11
2024-03-24T12:31:28.500Z,7
2024-03-24T12:32:27.741Z,12
2024-03-24T12:33:27.705Z,9
2024-03-24T12:34:28.001Z,11
2024-03-24T12:35:27.679Z,16
2024-03-24T12:36:28.167Z,11
2024-03-24T12:37:27.754Z,10
2024-03-24T12:38:27.811Z,9
2024-03-24T12:39:28.064Z,13
2024-03-24T12:40:27.685Z,10
2024-03-24T12:41:27.729Z,10
2024-03-24T12:42:34.843Z,9
2024-03-24T12:43:28.637Z,12
2024-03-24T12:44:27.845Z,12
2024-03-24T12:45:27.706Z,13
2024-03-24T12:46:27.850Z,19
2024-03-24T12:47:28.069Z,15
2024-03-24T12:48:27.739Z,9
2024-03-24T12:51:28.131Z,12
2024-03-24T12:52:28.632Z,8
2024-03-24T12:53:26.811Z,12
2024-03-24T12:54:28.379Z,8
2024-03-24T12:55:28.678Z,13
2024-03-24T12:56:28.297Z,12
2024-03-24T12:57:27.669Z,9
2024-03-24T12:58:28.264Z,10
2024-03-24T12:59:27.773Z,13
2024-03-24T13:00:27.734Z,12
2024-03-24T13:01:27.757Z,12
2024-03-24T13:02:27.720Z,14
2024-03-24T13:03:28.377Z,13
2024-03-24T13:04:28.248Z,11
2024-03-24T13:05:28.386Z,10
2024-03-24T13:06:27.928Z,12
2024-03-24T13:07:28.554Z,10
2024-03-24T13:08:28.039Z,11
2024-03-24T13:09:28.319Z,11
2024-03-24T13:10:28.416Z,8
2024-03-24T13:11:27.802Z,10
2024-03-24T13:12:27.680Z,12
2024-03-24T13:13:28.683Z,12
2024-03-24T13:14:28.386Z,11
2024-03-24T13:15:27.730Z,10
2024-03-24T13:16:28.191Z,10
2024-03-24T13:17:28.476Z,10
2024-03-24T13:18:27.766Z,10
2024-03-24T13:19:28.561Z,9
2024-03-24T13:20:28.062Z,11
2024-03-24T13:21:28.181Z,12
2024-03-24T13:22:28.256Z,8
2024-03-24T13:23:28.142Z,10
2024-03-24T13:24:28.121Z,9
2024-03-24T13:25:28.506Z,10
2024-03-24T13:26:28.429Z,10
2024-03-24T13:27:28.290Z,12
2024-03-24T13:28:28.019Z,12
2024-03-24T13:29:27.665Z,12
2024-03-24T13:30:27.749Z,12
2024-03-24T13:31:28.588Z,8
2024-03-24T13:32:28.426Z,8
2024-03-24T13:33:27.739Z,11
2024-03-24T13:34:28.109Z,11
2024-03-24T13:35:27.672Z,11
2024-03-24T13:36:28.250Z,10
2024-03-24T13:37:27.762Z,12
2024-03-24T13:38:27.695Z,12
2024-03-24T13:39:27.785Z,13
2024-03-24T13:40:28.527Z,11
2024-03-24T13:41:27.794Z,11
2024-03-24T13:42:28.322Z,12
2024-03-24T13:43:27.775Z,12
2024-03-24T13:44:28.295Z,12
2024-03-24T13:45:27.717Z,12
2024-03-24T13:46:27.708Z,14
2024-03-24T13:47:28.126Z,8
2024-03-24T13:48:28.304Z,10
2024-03-24T13:49:28.223Z,8
2024-03-24T13:50:28.501Z,8
2024-03-24T13:51:28.206Z,11
2024-03-24T13:52:28.310Z,8
2024-03-24T13:53:27.670Z,10
2024-03-24T13:54:27.688Z,8
2024-03-24T13:55:28.205Z,10
2024-03-24T13:56:27.839Z,10
2024-03-24T13:57:27.973Z,7
2024-03-24T13:58:27.654Z,7
2024-03-24T13:59:27.675Z,8
2024-03-24T14:00:26.920Z,8
2024-03-24T14:01:28.211Z,11
2024-03-24T14:02:28.188Z,7
2024-03-24T14:03:27.670Z,9
2024-03-24T14:04:28.583Z,8
2024-03-24T14:05:28.158Z,8
2024-03-24T14:06:27.674Z,10
2024-03-24T14:07:27.663Z,11
2024-03-24T14:08:27.687Z,9
2024-03-24T14:09:28.162Z,10
2024-03-24T14:10:27.713Z,9
2024-03-24T14:11:28.106Z,11
2024-03-24T14:12:28.142Z,13
2024-03-24T14:13:28.036Z,6
2024-03-24T14:14:27.770Z,9
2024-03-24T14:15:28.171Z,8
2024-03-24T14:16:27.799Z,8
2024-03-24T14:17:28.227Z,7
2024-03-24T14:18:27.864Z,11
2024-03-24T14:19:28.126Z,9
2024-03-24T14:20:28.224Z,8
2024-03-24T14:21:27.630Z,8
2024-03-24T14:22:27.856Z,13
2024-03-24T14:23:27.707Z,8
2024-03-24T14:24:28.395Z,7
2024-03-24T14:25:27.692Z,8
2024-03-24T14:26:27.827Z,8
2024-03-24T14:27:27.775Z,9
2024-03-24T14:28:28.000Z,11
2024-03-24T14:29:28.234Z,8
2024-03-24T14:30:27.959Z,10
2024-03-24T14:31:27.685Z,5
2024-03-24T14:32:28.390Z,9
2024-03-24T14:33:28.169Z,8
2024-03-24T14:34:29.027Z,8
2024-03-24T14:35:27.665Z,9
2024-03-24T14:36:28.148Z,9
2024-03-24T14:37:27.833Z,11
2024-03-24T14:38:28.372Z,10
2024-03-24T14:39:28.052Z,8
2024-03-24T14:40:28.219Z,9
2024-03-24T14:41:28.066Z,9